createdAt,value
2018-12-13T00:00:15.763Z,8.80
2018-12-13T00:01:15.589Z,8.90
2018-12-13T00:02:15.598Z,8.90
2018-12-13T00:03:15.504Z,8.40
2018-12-13T00:04:15.460Z,10.00
2018-12-13T00:05:15.422Z,8.60
2018-12-13T00:06:15.416Z,9.40
2018-12-13T00:07:15.370Z,8.50
2018-12-13T00:08:15.357Z,9.20
2018-12-13T00:09:15.273Z,9.40
2018-12-13T00:10:15.214Z,9.50
2018-12-13T00:11:15.258Z,8.60
2018-12-13T00:12:15.232Z,9.30
2018-12-13T00:13:15.087Z,10.30
2018-12-13T00:14:15.236Z,9.90
2018-12-13T00:15:15.137Z,9.40
2018-12-13T00:16:14.942Z,9.70
2018-12-13T00:17:14.991Z,9.20
2018-12-13T00:18:15.073Z,10.00
2018-12-13T00:19:15.496Z,8.80
2018-12-13T00:20:14.819Z,9.70
2018-12-13T00:21:15.437Z,8.90
2018-12-13T00:22:14.720Z,11.00
2018-12-13T00:23:14.718Z,10.00
2018-12-13T00:24:14.719Z,9.80
2018-12-13T00:25:14.640Z,9.70
2018-12-13T00:26:14.573Z,10.30
2018-12-13T00:27:14.770Z,11.30
2018-12-13T00:28:15.003Z,9.10
2018-12-13T00:29:14.515Z,9.10
2018-12-13T00:30:14.483Z,9.30
2018-12-13T00:31:14.646Z,9.50
2018-12-13T00:32:15.062Z,9.90
2018-12-13T00:33:14.379Z,9.20
2018-12-13T00:34:14.250Z,9.10
2018-12-13T00:35:14.579Z,9.40
2018-12-13T00:36:14.242Z,11.10
2018-12-13T00:37:14.347Z,8.80
2018-12-13T00:38:14.242Z,8.60
2018-12-13T00:39:14.107Z,10.20
2018-12-13T00:40:14.504Z,8.60
2018-12-13T00:41:14.084Z,8.80
2018-12-13T00:42:14.016Z,8.90
2018-12-13T00:43:14.046Z,9.00
2018-12-13T00:44:13.770Z,8.40
2018-12-13T00:45:13.887Z,8.40
2018-12-13T00:46:13.745Z,8.60
2018-12-13T00:47:13.840Z,9.20
2018-12-13T00:48:13.616Z,8.80
2018-12-13T00:49:14.506Z,8.80
2018-12-13T00:50:13.485Z,8.70
2018-12-13T00:51:13.599Z,9.10
2018-12-13T00:52:13.440Z,8.40
2018-12-13T00:53:13.438Z,8.80
2018-12-13T00:54:13.503Z,8.80
2018-12-13T00:55:13.561Z,8.50
2018-12-13T00:56:13.566Z,7.80
2018-12-13T00:57:13.247Z,8.80
2018-12-13T00:58:13.163Z,8.60
2018-12-13T00:59:13.134Z,8.80
2018-12-13T01:00:13.039Z,8.60
2018-12-13T01:01:13.001Z,8.30
2018-12-13T01:02:13.572Z,8.60
2018-12-13T01:03:13.252Z,8.90
2018-12-13T01:04:12.946Z,9.90
2018-12-13T01:05:12.926Z,8.50
2018-12-13T01:06:12.880Z,9.10
2018-12-13T01:07:12.793Z,9.50
2018-12-13T01:08:12.752Z,8.40
2018-12-13T01:09:12.788Z,8.50
2018-12-13T01:10:12.763Z,8.40
2018-12-13T01:11:12.678Z,9.10
2018-12-13T01:12:12.550Z,9.80
2018-12-13T01:13:12.485Z,9.20
2018-12-13T01:14:12.497Z,10.40
2018-12-13T01:15:12.540Z,9.80
2018-12-13T01:16:12.609Z,9.70
2018-12-13T01:17:13.099Z,11.20
2018-12-13T01:18:12.292Z,10.10
2018-12-13T01:19:12.383Z,10.90
2018-12-13T01:20:12.220Z,10.10
2018-12-13T01:21:12.163Z,12.60
2018-12-13T01:22:12.392Z,10.00
2018-12-13T01:23:12.058Z,10.50
2018-12-13T01:24:12.436Z,13.40
2018-12-13T01:25:12.361Z,12.70
2018-12-13T01:26:11.953Z,10.80
2018-12-13T01:27:12.182Z,11.70
2018-12-13T01:28:11.834Z,11.00
2018-12-13T01:29:11.895Z,11.10
2018-12-13T01:30:11.931Z,11.10
2018-12-13T01:31:11.915Z,10.80
2018-12-13T01:32:12.356Z,9.90
2018-12-13T01:33:12.129Z,12.10
2018-12-13T01:34:14.268Z,10.40
2018-12-13T01:35:12.474Z,10.40
2018-12-13T01:36:12.362Z,11.40
2018-12-13T01:37:11.901Z,10.40
2018-12-13T01:38:11.419Z,10.50
2018-12-13T01:39:11.381Z,10.30
2018-12-13T01:40:11.514Z,11.00
2018-12-13T01:41:11.676Z,9.50
2018-12-13T01:42:12.012Z,9.30
2018-12-13T01:43:11.222Z,13.20
2018-12-13T01:44:11.292Z,10.40
2018-12-13T01:45:11.153Z,9.90
2018-12-13T01:46:11.221Z,10.00
2018-12-13T01:47:11.271Z,9.40
2018-12-13T01:48:11.281Z,9.90
2018-12-13T01:49:15.849Z,9.20
2018-12-13T01:50:11.563Z,8.70
2018-12-13T01:51:12.144Z,11.90
2018-12-13T01:52:16.596Z,9.60
2018-12-13T01:53:11.893Z,8.60
2018-12-13T01:54:14.244Z,9.40
2018-12-13T01:55:12.401Z,9.80
2018-12-13T01:56:13.983Z,9.30
2018-12-13T01:57:16.049Z,9.50
2018-12-13T01:58:10.800Z,10.60
2018-12-13T01:59:16.020Z,8.40
2018-12-13T02:00:13.252Z,9.40
2018-12-13T02:01:14.490Z,8.40
2018-12-13T02:02:11.559Z,8.20
2018-12-13T02:03:10.611Z,8.10
2018-12-13T02:04:10.536Z,9.10
2018-12-13T02:05:10.653Z,8.30
2018-12-13T02:06:10.451Z,9.20
2018-12-13T02:07:10.189Z,9.90
2018-12-13T02:08:10.393Z,7.80
2018-12-13T02:09:10.184Z,9.40
2018-12-13T04:06:36.760Z,10.40
2018-12-13T04:07:36.679Z,11.10
2018-12-13T04:08:36.627Z,12.90
2018-12-13T04:09:36.577Z,11.80
2018-12-13T04:10:36.540Z,11.20
2018-12-13T04:11:36.486Z,11.70
2018-12-13T04:12:36.437Z,11.10
2018-12-13T04:13:36.392Z,11.00
2018-12-13T04:14:36.351Z,12.70
2018-12-13T04:15:36.297Z,11.60
2018-12-13T04:16:36.251Z,11.90
2018-12-13T04:17:36.209Z,13.70
2018-12-13T04:18:36.159Z,11.30
2018-12-13T04:19:36.125Z,12.10
2018-12-13T04:20:36.073Z,11.00
2018-12-13T04:21:36.036Z,12.80
2018-12-13T04:22:35.996Z,11.30
2018-12-13T04:23:35.937Z,12.80
2018-12-13T04:24:35.896Z,11.80
2018-12-13T04:25:35.847Z,13.80
2018-12-13T04:26:35.800Z,12.00
2018-12-13T04:27:35.761Z,12.60
2018-12-13T04:28:35.715Z,12.10
2018-12-13T04:29:35.668Z,12.30
2018-12-13T04:30:35.622Z,12.80
2018-12-13T04:31:35.583Z,12.90
2018-12-13T04:32:35.537Z,11.80
2018-12-13T04:33:35.494Z,13.30
2018-12-13T04:34:35.449Z,11.90
2018-12-13T04:35:35.400Z,12.10
2018-12-13T04:36:35.357Z,11.50
2018-12-13T04:37:35.438Z,11.40
2018-12-13T04:38:35.265Z,12.70
2018-12-13T04:39:35.227Z,12.60
2018-12-13T04:40:35.182Z,11.60
2018-12-13T04:41:35.136Z,11.10
2018-12-13T04:42:35.094Z,11.50
2018-12-13T04:43:35.044Z,11.30
2018-12-13T04:44:35.001Z,12.20
2018-12-13T04:45:34.962Z,11.50
2018-12-13T04:46:34.920Z,11.20
2018-12-13T04:47:34.869Z,11.80
2018-12-13T04:48:34.825Z,11.70
2018-12-13T04:49:34.780Z,11.40
2018-12-13T04:50:34.735Z,11.70
2018-12-13T04:51:34.704Z,12.10
2018-12-13T04:52:34.652Z,12.20
2018-12-13T04:53:34.605Z,11.80
2018-12-13T04:54:34.563Z,12.60
2018-12-13T04:55:34.514Z,12.50
2018-12-13T04:56:34.470Z,11.50
2018-12-13T04:57:34.426Z,12.00
2018-12-13T04:58:34.438Z,13.10
2018-12-13T04:59:34.344Z,13.00
2018-12-13T05:00:34.319Z,11.50
2018-12-13T05:01:34.250Z,12.10
2018-12-13T05:02:34.203Z,12.30
2018-12-13T05:03:34.166Z,11.80
2018-12-13T05:04:34.118Z,12.20
2018-12-13T05:05:34.074Z,13.20
2018-12-13T05:06:34.033Z,12.70
2018-12-13T05:07:33.982Z,12.30
2018-12-13T05:08:33.939Z,12.60
2018-12-13T05:09:33.896Z,13.00
2018-12-13T05:10:33.849Z,11.20
2018-12-13T05:11:33.811Z,12.90
2018-12-13T05:12:33.765Z,11.90
2018-12-13T05:13:33.720Z,11.60
2018-12-13T05:14:33.679Z,13.20
2018-12-13T05:15:33.628Z,11.80
2018-12-13T05:16:33.585Z,14.10
2018-12-13T05:17:33.548Z,11.50
2018-12-13T05:18:33.501Z,12.90
2018-12-13T05:19:33.452Z,12.30
2018-12-13T05:20:33.416Z,12.80
2018-12-13T05:21:33.364Z,11.90
2018-12-13T05:22:33.318Z,12.30
2018-12-13T05:23:33.280Z,13.30
2018-12-13T05:24:33.236Z,13.90
2018-12-13T05:25:33.192Z,13.60
2018-12-13T05:26:33.148Z,11.90
2018-12-13T05:27:33.098Z,13.70
2018-12-13T05:28:33.055Z,12.50
2018-12-13T05:29:33.010Z,11.80
2018-12-13T05:30:32.969Z,10.70
2018-12-13T05:31:32.958Z,11.90
2018-12-13T05:32:32.893Z,13.10
2018-12-13T05:33:32.834Z,13.30
2018-12-13T05:34:32.789Z,12.10
2018-12-13T05:35:32.749Z,12.40
2018-12-13T05:36:32.710Z,12.00
2018-12-13T05:37:32.667Z,12.00
2018-12-13T05:38:32.617Z,11.80
2018-12-13T05:39:32.567Z,11.90
2018-12-13T05:40:32.524Z,12.00
2018-12-13T05:41:32.480Z,12.90
2018-12-13T05:42:32.434Z,12.20
2018-12-13T05:43:32.398Z,11.50
2018-12-13T05:44:32.349Z,13.90
2018-12-13T05:45:32.305Z,13.10
2018-12-13T05:46:32.269Z,12.70
2018-12-13T05:47:32.216Z,13.20
2018-12-13T05:48:32.170Z,12.90
2018-12-13T05:49:32.129Z,14.40
2018-12-13T05:50:32.088Z,13.30
2018-12-13T05:51:32.036Z,13.80
2018-12-13T05:52:31.993Z,14.60
2018-12-13T05:53:31.951Z,13.40
2018-12-13T05:54:31.904Z,11.90
2018-12-13T05:55:31.865Z,11.70
2018-12-13T05:56:31.819Z,12.50
2018-12-13T05:57:31.776Z,12.30
2018-12-13T05:58:31.732Z,14.50
2018-12-13T05:59:31.683Z,13.20
2018-12-13T06:00:31.642Z,13.20
2018-12-13T06:01:31.596Z,13.20
2018-12-13T06:02:31.549Z,13.90
2018-12-13T06:03:31.511Z,15.10
2018-12-13T06:04:31.476Z,13.40
2018-12-13T06:05:31.419Z,13.70
2018-12-13T06:06:31.372Z,12.40
2018-12-13T06:07:31.336Z,14.10
2018-12-13T06:08:31.338Z,12.60
2018-12-13T06:09:31.244Z,13.80
2018-12-13T06:10:31.201Z,14.90
2018-12-13T06:11:31.154Z,14.50
2018-12-13T06:12:31.110Z,12.30
2018-12-13T06:13:31.065Z,12.20
2018-12-13T06:14:31.022Z,12.00
2018-12-13T06:15:30.981Z,11.90
2018-12-13T06:16:30.934Z,12.60
2018-12-13T06:17:30.892Z,12.00
2018-12-13T06:18:30.848Z,12.60
2018-12-13T06:19:30.797Z,13.10
2018-12-13T06:20:30.755Z,11.90
2018-12-13T06:21:36.678Z,14.30
2018-12-13T06:22:30.670Z,12.30
2018-12-13T06:23:30.624Z,13.60
2018-12-13T06:24:30.580Z,13.60
2018-12-13T06:25:30.536Z,12.90
2018-12-13T06:26:30.488Z,13.60
2018-12-13T06:27:30.456Z,14.20
2018-12-13T06:28:30.403Z,12.60
2018-12-13T06:29:30.360Z,11.30
2018-12-13T06:30:30.319Z,14.30
2018-12-13T06:31:30.266Z,14.90
2018-12-13T06:32:30.224Z,13.70
2018-12-13T06:33:30.194Z,15.10
2018-12-13T06:34:30.134Z,13.00
2018-12-13T06:35:30.095Z,13.80
2018-12-13T06:36:30.049Z,13.40
2018-12-13T06:37:30.003Z,14.50
2018-12-13T06:38:29.961Z,12.50
2018-12-13T06:39:29.919Z,12.20
2018-12-13T06:40:29.871Z,14.20
2018-12-13T06:41:29.828Z,14.10
2018-12-13T06:42:29.784Z,14.50
2018-12-13T06:43:29.738Z,14.50
2018-12-13T06:44:29.692Z,12.30
2018-12-13T06:45:29.647Z,12.70
2018-12-13T06:46:29.602Z,14.10
2018-12-13T06:47:29.563Z,15.60
2018-12-13T06:48:29.517Z,13.00
2018-12-13T06:49:29.473Z,13.40
2018-12-13T06:50:29.431Z,14.20
2018-12-13T06:51:29.381Z,15.90
2018-12-13T06:52:29.338Z,14.10
2018-12-13T06:53:29.296Z,14.80
2018-12-13T06:54:29.253Z,15.10
2018-12-13T06:55:29.204Z,14.60
2018-12-13T06:56:29.162Z,13.80
2018-12-13T06:57:29.116Z,15.60
2018-12-13T06:58:29.070Z,12.80
2018-12-13T06:59:29.032Z,13.20
2018-12-13T07:00:28.985Z,13.70
2018-12-13T07:01:28.944Z,13.40
2018-12-13T07:02:28.899Z,14.90
2018-12-13T07:03:28.849Z,14.80
2018-12-13T07:04:28.805Z,13.30
2018-12-13T07:05:28.768Z,14.70
2018-12-13T07:06:28.717Z,13.60
2018-12-13T07:07:28.679Z,14.60
2018-12-13T07:08:28.631Z,13.00
2018-12-13T07:09:28.586Z,13.70
2018-12-13T07:10:28.540Z,14.70
2018-12-13T07:11:28.500Z,14.70
2018-12-13T07:12:28.454Z,13.30
2018-12-13T07:13:28.411Z,12.80
2018-12-13T07:14:28.367Z,13.30
2018-12-13T07:15:28.317Z,15.70
2018-12-13T07:16:28.273Z,13.70
2018-12-13T07:17:28.227Z,13.70
2018-12-13T07:18:28.186Z,14.30
2018-12-13T07:19:28.143Z,14.60
2018-12-13T07:20:28.100Z,12.80
2018-12-13T07:21:28.056Z,12.80
2018-12-13T07:22:28.015Z,12.10
2018-12-13T07:23:27.965Z,13.20
2018-12-13T07:24:27.916Z,14.40
2018-12-13T07:25:27.879Z,14.00
2018-12-13T07:26:27.839Z,13.60
2018-12-13T07:27:27.786Z,13.10
2018-12-13T07:28:29.015Z,13.50
2018-12-13T07:29:27.698Z,12.50
2018-12-13T07:30:27.660Z,12.70
2018-12-13T07:31:27.614Z,12.10
2018-12-13T07:32:27.568Z,13.80
2018-12-13T07:33:27.526Z,13.60
2018-12-13T07:34:27.482Z,13.60
2018-12-13T07:35:27.434Z,13.80
2018-12-13T07:36:27.385Z,14.40
2018-12-13T07:37:27.344Z,14.90
2018-12-13T07:38:27.299Z,13.30
2018-12-13T07:39:27.257Z,14.50
2018-12-13T07:40:27.214Z,12.60
2018-12-13T07:41:27.165Z,13.00
2018-12-13T07:42:27.121Z,12.90
2018-12-13T07:43:27.080Z,12.70
2018-12-13T07:44:27.037Z,11.90
2018-12-13T07:45:26.993Z,11.80
2018-12-13T07:46:26.947Z,13.40
2018-12-13T07:47:26.902Z,12.10
2018-12-13T07:48:26.853Z,12.70
2018-12-13T07:49:26.811Z,12.00
2018-12-13T07:50:26.767Z,12.00
2018-12-13T07:51:26.727Z,13.00
2018-12-13T07:52:26.680Z,14.70
2018-12-13T07:53:26.642Z,12.10
2018-12-13T07:54:26.592Z,12.10
2018-12-13T07:55:26.547Z,12.40
2018-12-13T07:56:26.497Z,12.30
2018-12-13T07:57:26.463Z,11.50
2018-12-13T07:58:26.413Z,12.40
2018-12-13T07:59:26.373Z,12.10
2018-12-13T08:00:26.319Z,12.20
2018-12-13T08:01:26.277Z,12.60
2018-12-13T08:02:26.233Z,13.40
2018-12-13T08:03:26.191Z,12.60
2018-12-13T08:04:26.149Z,11.80
2018-12-13T08:05:26.104Z,11.70
2018-12-13T08:06:26.057Z,12.80
2018-12-13T08:07:26.011Z,13.30
2018-12-13T08:08:25.965Z,13.10
2018-12-13T08:09:25.920Z,12.50
2018-12-13T08:10:25.880Z,12.80
2018-12-13T08:11:25.837Z,13.70
2018-12-13T08:12:25.792Z,11.80
2018-12-13T08:13:25.743Z,13.10
2018-12-13T08:14:25.703Z,12.40
2018-12-13T08:15:25.658Z,12.10
2018-12-13T08:16:25.619Z,11.30
2018-12-13T08:17:25.571Z,13.30
2018-12-13T08:18:25.525Z,12.30
2018-12-13T08:19:25.480Z,13.00
2018-12-13T08:20:25.431Z,12.70
2018-12-13T08:21:25.387Z,12.50
2018-12-13T08:22:25.344Z,13.00
2018-12-13T08:23:25.303Z,11.50
2018-12-13T08:24:25.259Z,12.90
2018-12-13T08:25:25.215Z,13.90
2018-12-13T08:26:25.168Z,11.80
2018-12-13T08:27:25.124Z,12.50
2018-12-13T08:28:25.076Z,12.60
2018-12-13T08:29:25.038Z,12.70
2018-12-13T08:30:24.993Z,14.20
2018-12-13T08:31:24.946Z,12.00
2018-12-13T08:32:24.951Z,12.80
2018-12-13T08:33:24.854Z,13.70
2018-12-13T08:34:24.813Z,12.90
2018-12-13T08:35:24.770Z,14.50
2018-12-13T08:36:24.727Z,13.10
2018-12-13T08:37:24.684Z,12.30
2018-12-13T08:38:27.251Z,13.50
2018-12-13T08:39:24.591Z,12.10
2018-12-13T08:40:24.543Z,13.40
2018-12-13T08:41:24.498Z,13.00
2018-12-13T08:42:24.456Z,13.10
2018-12-13T08:43:24.415Z,12.50
2018-12-13T08:44:24.372Z,13.30
2018-12-13T08:45:24.436Z,11.60
2018-12-13T08:46:24.281Z,13.80
2018-12-13T08:47:24.238Z,13.50
2018-12-13T08:48:24.195Z,13.40
2018-12-13T08:49:24.148Z,14.20
2018-12-13T08:50:24.104Z,13.50
2018-12-13T08:51:24.057Z,13.50
2018-12-13T08:52:24.011Z,12.30
2018-12-13T08:53:23.972Z,13.00
2018-12-13T08:54:23.924Z,13.20
2018-12-13T08:55:23.882Z,14.30
2018-12-13T08:56:23.843Z,12.70
2018-12-13T08:57:23.795Z,12.40
2018-12-13T08:58:23.750Z,13.40
2018-12-13T08:59:23.705Z,12.40
2018-12-13T09:00:23.657Z,13.60
2018-12-13T09:01:23.618Z,11.80
2018-12-13T09:02:23.573Z,13.40
2018-12-13T09:03:23.526Z,11.80
2018-12-13T09:04:23.478Z,13.70
2018-12-13T09:05:23.434Z,12.30
2018-12-13T09:06:23.391Z,11.80
2018-12-13T09:07:23.355Z,11.90
2018-12-13T09:08:23.306Z,11.90
2018-12-13T09:09:23.262Z,11.00
2018-12-13T09:10:23.216Z,14.00
2018-12-13T09:11:23.171Z,12.30
2018-12-13T09:12:23.125Z,12.40
2018-12-13T09:13:23.078Z,13.60
2018-12-13T09:14:23.036Z,14.80
2018-12-13T09:15:22.995Z,10.50
2018-12-13T09:16:22.952Z,12.60
2018-12-13T09:17:22.901Z,10.70
2018-12-13T09:18:22.859Z,12.20
2018-12-13T09:19:22.818Z,12.50
2018-12-13T09:20:22.774Z,12.30
2018-12-13T09:21:22.730Z,13.50
2018-12-13T09:22:22.685Z,13.40
2018-12-13T09:23:22.638Z,13.60
2018-12-13T09:24:22.594Z,13.30
2018-12-13T09:25:22.546Z,12.90
2018-12-13T09:26:22.504Z,13.30
2018-12-13T09:27:22.465Z,12.60
2018-12-13T09:28:22.421Z,12.70
2018-12-13T09:29:22.375Z,13.10
2018-12-13T09:30:22.329Z,12.30
2018-12-13T09:31:22.285Z,13.80
2018-12-13T09:32:22.236Z,12.30
2018-12-13T09:33:22.198Z,12.70
2018-12-13T09:34:22.153Z,11.80
2018-12-13T09:35:22.107Z,12.10
2018-12-13T09:36:22.059Z,11.80
2018-12-13T09:37:22.015Z,13.30
2018-12-13T09:38:21.973Z,13.30
2018-12-13T09:39:21.932Z,11.70
2018-12-13T09:40:21.891Z,12.70
2018-12-13T09:41:21.845Z,11.10
2018-12-13T09:42:21.798Z,11.50
2018-12-13T09:43:21.751Z,11.50
2018-12-13T09:44:21.705Z,11.30
2018-12-13T09:45:21.664Z,10.80
2018-12-13T09:46:21.619Z,12.50
2018-12-13T09:47:21.579Z,11.90
2018-12-13T09:48:21.534Z,12.70
2018-12-13T09:49:21.484Z,12.90
2018-12-13T09:50:21.442Z,12.70
2018-12-13T09:51:21.399Z,12.30
2018-12-13T09:52:21.356Z,12.40
2018-12-13T09:53:21.312Z,12.80
2018-12-13T09:54:21.266Z,12.00
2018-12-13T09:55:21.224Z,12.60
2018-12-13T09:56:21.173Z,13.90
2018-12-13T09:57:21.129Z,12.20
2018-12-13T09:58:21.088Z,13.50
2018-12-13T09:59:21.048Z,13.40
2018-12-13T10:00:21.003Z,12.80
2018-12-13T10:01:20.959Z,13.30
2018-12-13T10:02:20.912Z,13.40
2018-12-13T10:03:20.867Z,13.20
2018-12-13T10:04:20.818Z,12.40
2018-12-13T10:05:20.785Z,12.80
2018-12-13T10:06:20.736Z,11.60
2018-12-13T10:20:33.574Z,10.30
2018-12-13T10:21:33.498Z,13.30
2018-12-13T10:22:33.452Z,13.30
2018-12-13T10:23:33.402Z,13.70
2018-12-13T10:24:33.356Z,12.30
2018-12-13T10:25:33.308Z,12.00
2018-12-13T10:26:33.264Z,13.20
2018-12-13T10:27:33.215Z,12.80
2018-12-13T10:28:33.170Z,12.40
2018-12-13T10:29:33.121Z,12.70
2018-12-13T10:30:33.078Z,12.90
2018-12-13T10:31:33.032Z,13.60
2018-12-13T10:32:32.989Z,13.50
2018-12-13T10:33:32.945Z,13.00
2018-12-13T10:34:32.901Z,12.40
2018-12-13T10:35:32.857Z,12.60
2018-12-13T10:36:32.810Z,13.60
2018-12-13T10:37:32.761Z,11.40
2018-12-13T10:38:32.718Z,12.10
2018-12-13T10:39:32.676Z,14.70
2018-12-13T10:40:32.631Z,11.10
2018-12-13T10:41:32.590Z,11.70
2018-12-13T10:42:32.539Z,12.30
2018-12-13T10:43:32.503Z,12.50
2018-12-13T10:44:32.455Z,13.70
2018-12-13T10:45:32.413Z,12.20
2018-12-13T10:46:32.366Z,13.30
2018-12-13T10:47:32.321Z,12.20
2018-12-13T10:48:32.275Z,12.90
2018-12-13T10:49:32.239Z,13.00
2018-12-13T10:50:32.185Z,13.40
2018-12-13T10:51:32.141Z,10.50
2018-12-13T10:52:32.101Z,11.20
2018-12-13T10:53:32.055Z,11.40
2018-12-13T10:54:32.012Z,14.20
2018-12-13T10:55:31.967Z,13.10
2018-12-13T10:56:31.919Z,12.80
2018-12-13T10:57:31.872Z,13.30
2018-12-13T10:58:31.834Z,11.90
2018-12-13T10:59:31.788Z,11.90
2018-12-13T11:00:31.743Z,12.50
2018-12-13T11:01:31.694Z,13.20
2018-12-13T11:02:31.653Z,12.10
2018-12-13T11:03:31.615Z,13.60
2018-12-13T11:04:31.568Z,12.50
2018-12-13T11:05:31.525Z,12.30
2018-12-13T11:06:31.481Z,12.20
2018-12-13T11:07:31.437Z,12.30
2018-12-13T11:08:31.389Z,11.70
2018-12-13T11:09:31.344Z,11.30
2018-12-13T11:10:31.301Z,11.10
2018-12-13T11:11:31.260Z,11.50
2018-12-13T11:12:31.215Z,12.20
2018-12-13T11:13:31.173Z,13.20
2018-12-13T11:14:31.122Z,12.50
2018-12-13T11:15:31.082Z,11.00
2018-12-13T11:16:31.039Z,11.90
2018-12-13T11:17:30.996Z,11.70
2018-12-13T11:18:30.952Z,11.50
2018-12-13T11:19:30.906Z,13.00
2018-12-13T11:20:30.860Z,12.70
2018-12-13T11:21:30.814Z,14.40
2018-12-13T11:22:30.771Z,12.30
2018-12-13T11:23:30.730Z,13.10
2018-12-13T11:24:30.685Z,12.00
2018-12-13T11:25:30.643Z,12.50
2018-12-13T11:26:30.598Z,12.70
2018-12-13T11:27:30.554Z,11.60
2018-12-13T11:28:30.508Z,12.10
2018-12-13T11:29:30.459Z,11.70
2018-12-13T11:30:30.422Z,11.90
2018-12-13T11:31:30.381Z,11.60
2018-12-13T11:32:30.336Z,10.70
2018-12-13T11:33:30.283Z,11.10
2018-12-13T11:34:30.242Z,10.40
2018-12-13T11:35:30.199Z,12.00
2018-12-13T11:36:30.157Z,11.40
2018-12-13T11:37:30.118Z,13.80
2018-12-13T11:38:30.071Z,10.50
2018-12-13T11:39:30.025Z,11.90
2018-12-13T11:40:29.979Z,12.40
2018-12-13T11:41:29.932Z,11.10
2018-12-13T11:42:29.890Z,10.40
2018-12-13T11:43:29.846Z,11.60
2018-12-13T11:44:29.805Z,10.90
2018-12-13T11:45:29.762Z,11.30
2018-12-13T11:46:29.712Z,11.50
2018-12-13T11:47:29.671Z,12.70
2018-12-13T11:48:29.629Z,11.40
2018-12-13T11:49:29.587Z,10.80
2018-12-13T11:50:29.548Z,11.90
2018-12-13T11:51:29.498Z,13.80
2018-12-13T11:52:29.452Z,11.60
2018-12-13T11:53:29.406Z,13.60
2018-12-13T11:54:29.375Z,13.30
2018-12-13T11:55:29.321Z,12.10
2018-12-13T11:56:29.300Z,12.40
2018-12-13T11:57:29.238Z,12.30
2018-12-13T11:58:29.255Z,13.10
2018-12-13T11:59:29.147Z,12.90
2018-12-13T12:00:29.111Z,10.90
2018-12-13T12:01:29.063Z,13.20
2018-12-13T12:02:29.019Z,11.80
2018-12-13T12:03:28.974Z,12.00
2018-12-13T12:04:28.930Z,11.90
2018-12-13T12:05:28.882Z,11.50
2018-12-13T12:06:28.840Z,13.30
2018-12-13T12:07:28.795Z,12.50
2018-12-13T12:08:28.754Z,13.10
2018-12-13T12:09:28.712Z,11.60
2018-12-13T12:10:28.677Z,11.60
2018-12-13T12:11:28.624Z,13.50
2018-12-13T12:12:28.578Z,12.30
2018-12-13T12:13:28.530Z,11.10
2018-12-13T12:14:28.488Z,11.20
2018-12-13T12:15:28.446Z,12.50
2018-12-13T12:16:28.407Z,12.80
2018-12-13T12:17:28.362Z,12.50
2018-12-13T12:18:28.316Z,10.90
2018-12-13T12:19:28.336Z,10.70
2018-12-13T12:20:28.230Z,11.50
2018-12-13T12:21:28.186Z,10.80
2018-12-13T12:22:28.144Z,11.80
2018-12-13T12:23:28.098Z,12.40
2018-12-13T12:24:28.055Z,14.10
2018-12-13T12:25:28.007Z,11.20
2018-12-13T12:26:27.963Z,12.50
2018-12-13T12:27:27.920Z,11.70
2018-12-13T12:28:27.881Z,13.20
2018-12-13T12:29:27.836Z,11.80
2018-12-13T12:30:27.794Z,11.60
2018-12-13T12:31:27.748Z,12.80
2018-12-13T12:32:27.702Z,12.40
2018-12-13T12:33:27.656Z,12.40
2018-12-13T12:34:27.618Z,12.70
2018-12-13T12:35:27.574Z,12.40
2018-12-13T12:36:27.527Z,11.00
2018-12-13T12:37:27.482Z,11.10
2018-12-13T12:38:27.437Z,15.10
2018-12-13T12:39:27.398Z,13.70
2018-12-13T12:40:27.355Z,12.80
2018-12-13T12:41:27.312Z,12.00
2018-12-13T12:42:27.270Z,11.10
2018-12-13T12:43:27.223Z,11.20
2018-12-13T12:44:27.177Z,11.20
2018-12-13T12:45:27.131Z,12.60
2018-12-13T12:46:27.089Z,13.10
2018-12-13T12:47:27.046Z,13.60
2018-12-13T12:48:27.004Z,12.80
2018-12-13T12:49:26.963Z,12.80
2018-12-13T12:50:26.956Z,12.20
2018-12-13T12:51:26.876Z,11.50
2018-12-13T12:52:26.832Z,11.60
2018-12-13T12:53:26.789Z,11.90
2018-12-13T12:54:26.747Z,12.20
2018-12-13T12:55:26.703Z,11.50
2018-12-13T12:56:26.654Z,12.20
2018-12-13T12:57:26.608Z,12.30
2018-12-13T12:58:26.565Z,12.40
2018-12-13T12:59:26.525Z,13.20
2018-12-13T13:00:26.482Z,13.10
2018-12-13T13:01:26.439Z,14.50
2018-12-13T13:02:26.397Z,13.10
2018-12-13T13:03:26.352Z,11.10
2018-12-13T13:04:26.306Z,14.10
2018-12-13T13:05:26.262Z,10.80
2018-12-13T13:06:26.222Z,13.40
2018-12-13T13:07:26.177Z,14.10
2018-12-13T13:08:26.132Z,13.00
2018-12-13T13:09:26.087Z,13.80
2018-12-13T13:10:26.042Z,11.40
2018-12-13T13:11:26.000Z,11.90
2018-12-13T13:12:25.960Z,11.00
2018-12-13T13:13:25.919Z,10.20
2018-12-13T13:14:25.872Z,10.90
2018-12-13T13:15:25.832Z,10.70
2018-12-13T13:16:25.784Z,10.70
2018-12-13T13:17:25.739Z,11.70
2018-12-13T13:18:25.696Z,11.10
2018-12-13T13:19:25.650Z,10.30
2018-12-13T13:20:25.612Z,11.10
2018-12-13T13:21:25.566Z,12.70
2018-12-13T13:22:25.521Z,11.70
2018-12-13T13:23:25.474Z,12.80
2018-12-13T13:24:25.440Z,12.20
2018-12-13T13:25:25.391Z,11.80
2018-12-13T13:26:25.349Z,10.90
2018-12-13T13:27:25.307Z,10.50
2018-12-13T13:28:25.256Z,12.30
2018-12-13T13:29:25.295Z,11.90
2018-12-13T13:30:25.171Z,11.10
2018-12-13T13:31:25.126Z,13.10
2018-12-13T13:32:25.088Z,10.90
2018-12-13T13:33:25.041Z,12.00
2018-12-13T13:34:24.997Z,11.80
2018-12-13T13:35:24.956Z,12.80
2018-12-13T13:36:24.906Z,12.30
2018-12-13T13:37:24.863Z,12.10
2018-12-13T13:38:24.823Z,13.00
2018-12-13T13:39:31.283Z,13.80
2018-12-13T13:40:24.732Z,11.30
2018-12-13T13:41:24.689Z,14.00
2018-12-13T13:42:24.646Z,16.70
2018-12-13T13:43:24.599Z,16.70
2018-12-13T13:44:24.562Z,14.80
2018-12-13T13:45:24.516Z,12.60
2018-12-13T13:46:24.471Z,11.80
2018-12-13T13:47:24.431Z,11.70
2018-12-13T13:48:24.381Z,12.70
2018-12-13T13:49:24.338Z,12.60
2018-12-13T13:50:24.294Z,14.60
2018-12-13T13:51:24.249Z,13.10
2018-12-13T13:52:24.212Z,13.10
2018-12-13T13:53:24.165Z,12.90
2018-12-13T13:54:24.119Z,11.70
2018-12-13T13:55:24.077Z,11.30
2018-12-13T13:56:24.036Z,11.70
2018-12-13T13:57:23.989Z,12.40
2018-12-13T13:58:23.945Z,11.00
2018-12-13T13:59:23.903Z,11.00
2018-12-13T14:00:23.855Z,11.20
2018-12-13T14:01:23.811Z,13.40
2018-12-13T14:02:23.768Z,12.10
2018-12-13T14:03:23.724Z,12.60
2018-12-13T14:04:23.684Z,11.90
2018-12-13T14:05:23.638Z,13.30
2018-12-13T14:06:23.597Z,13.70
2018-12-13T14:07:23.553Z,11.80
2018-12-13T14:08:23.503Z,11.20
2018-12-13T14:09:23.460Z,11.20
2018-12-13T14:10:23.419Z,11.00
2018-12-13T14:11:23.376Z,13.30
2018-12-13T14:12:23.328Z,22.50
2018-12-13T14:13:23.286Z,22.20
2018-12-13T14:14:23.240Z,13.40
2018-12-13T14:15:23.196Z,12.60
2018-12-13T14:16:23.160Z,11.30
2018-12-13T14:17:23.110Z,10.30
2018-12-13T14:18:23.067Z,10.60
2018-12-13T14:19:23.026Z,11.10
2018-12-13T14:20:22.981Z,11.70
2018-12-13T14:21:22.932Z,12.20
2018-12-13T14:22:22.890Z,10.40
2018-12-13T14:23:22.843Z,13.90
2018-12-13T14:24:22.809Z,11.00
2018-12-13T14:25:22.758Z,11.60
2018-12-13T14:26:22.714Z,12.90
2018-12-13T14:27:22.668Z,11.70
2018-12-13T14:28:22.632Z,12.00
2018-12-13T14:29:22.591Z,11.30
2018-12-13T14:30:22.539Z,12.60
2018-12-13T14:31:22.498Z,12.10
2018-12-13T14:32:22.448Z,13.00
2018-12-13T14:33:22.407Z,12.40
2018-12-13T14:34:22.362Z,12.60
2018-12-13T14:35:22.319Z,12.30
2018-12-13T14:36:22.278Z,11.30
2018-12-13T14:37:22.232Z,11.20
2018-12-13T14:38:22.189Z,11.40
2018-12-13T14:39:22.152Z,11.00
2018-12-13T14:40:22.095Z,10.90
2018-12-13T14:41:22.054Z,12.20
2018-12-13T14:42:22.012Z,12.80
2018-12-13T14:43:21.970Z,11.30
2018-12-13T14:44:21.943Z,11.00
2018-12-13T14:45:21.877Z,12.50
2018-12-13T14:46:21.837Z,11.70
2018-12-13T14:47:21.788Z,11.50
2018-12-13T14:48:21.750Z,12.70
2018-12-13T14:49:21.703Z,11.60
2018-12-13T14:50:21.660Z,12.10
2018-12-13T14:51:21.618Z,13.10
2018-12-13T14:52:21.568Z,13.80
2018-12-13T14:53:21.525Z,11.70
2018-12-13T14:54:21.482Z,12.40
2018-12-13T14:55:21.436Z,12.60
2018-12-13T14:56:21.398Z,12.60
2018-12-13T14:57:21.352Z,14.00
2018-12-13T14:58:21.307Z,13.20
2018-12-13T14:59:21.267Z,12.20
2018-12-13T15:00:21.225Z,11.70
2018-12-13T15:01:21.197Z,11.10
2018-12-13T15:02:21.131Z,13.70
2018-12-13T15:03:21.123Z,11.50
2018-12-13T15:04:21.040Z,12.20